Time;durP1;ratioP1;P1;durP2;ratioP2;P2;SDS_P1;SDS_P2;PMS_P1;PMS_P2;Temp;Humidity;BMP_temperature;BMP_pressure;BME280_temperature;BME280_humidity;BME280_pressure;Samples;Min_cycle;Max_cycle;Signal;HPM_P1;HPM_P2
2022/05/02 00:01:41;;;;;;;14.35;9.35;;;15.40;99.90;;;;;;5094101;28;20201;-73
2022/05/02 00:04:10;;;;;;;10.70;9.52;;;15.40;99.90;;;;;;5072194;28;20199;-79
2022/05/02 00:06:37;;;;;;;11.40;10.15;;;15.30;99.90;;;;;;5085405;28;20205;-71
2022/05/02 00:09:04;;;;;;;12.18;10.98;;;15.30;99.90;;;;;;5085196;28;20199;-79
2022/05/02 00:11:31;;;;;;;12.10;9.52;;;15.30;99.90;;;;;;5090491;28;20303;-81
2022/05/02 00:13:58;;;;;;;10.55;9.02;;;15.30;99.90;;;;;;5074464;28;20551;-84
2022/05/02 00:16:25;;;;;;;10.95;9.48;;;15.30;99.90;;;;;;5081259;28;20245;-77
2022/05/02 00:18:52;;;;;;;12.23;9.60;;;15.30;99.90;;;;;;5086116;28;20194;-83
2022/05/02 00:21:20;;;;;;;10.77;8.80;;;15.20;99.90;;;;;;5084538;28;20198;-76
2022/05/02 00:23:47;;;;;;;9.40;8.48;;;15.30;99.90;;;;;;5084763;28;20255;-79
2022/05/02 00:26:14;;;;;;;10.55;8.00;;;15.30;99.90;;;;;;5077884;28;20271;-80
2022/05/02 00:28:41;;;;;;;11.60;8.35;;;15.30;99.90;;;;;;5077202;28;20198;-86
2022/05/02 00:31:08;;;;;;;9.45;8.25;;;15.40;99.90;;;;;;5079078;28;20198;-89
2022/05/02 00:33:35;;;;;;;11.98;7.15;;;15.20;99.90;;;;;;5075162;28;20202;-84
2022/05/02 00:36:02;;;;;;;8.40;7.60;;;15.30;99.90;;;;;;5080340;28;20221;-84
2022/05/02 00:38:30;;;;;;;10.18;7.72;;;15.20;99.90;;;;;;5072644;28;20207;-76
2022/05/02 00:40:59;;;;;;;11.45;8.18;;;15.30;99.90;;;;;;5077699;28;20665;-79
2022/05/02 00:43:25;;;;;;;10.13;7.72;;;15.30;99.90;;;;;;5076682;28;20572;-82
2022/05/02 00:45:52;;;;;;;10.10;8.05;;;15.30;99.90;;;;;;5083073;28;20735;-78
2022/05/02 00:48:20;;;;;;;12.50;9.07;;;15.30;99.90;;;;;;5078349;28;20267;-80
2022/05/02 00:50:47;;;;;;;11.45;8.70;;;15.30;99.90;;;;;;5081070;28;20778;-81
2022/05/02 00:53:16;;;;;;;8.27;7.45;;;15.30;99.90;;;;;;5073316;28;20209;-82
2022/05/02 00:55:45;;;;;;;8.10;7.40;;;15.30;99.90;;;;;;5073260;28;20226;-82
2022/05/02 00:58:12;;;;;;;9.63;8.52;;;15.20;99.90;;;;;;5080351;28;20202;-81
2022/05/02 01:00:40;;;;;;;11.02;7.63;;;15.10;99.90;;;;;;5079566;28;20625;-75
2022/05/02 01:03:09;;;;;;;10.65;7.82;;;15.20;99.90;;;;;;5092498;28;20206;-85
2022/05/02 01:07:08;;;;;;;8.85;6.78;;;15.10;99.90;;;;;;5092577;28;20251;-78
2022/05/02 01:08:26;;;;;;;9.80;7.35;;;15.00;99.90;;;;;;5073579;28;20654;-86
2022/05/02 01:10:56;;;;;;;9.05;7.93;;;15.10;99.90;;;;;;5073195;28;20194;-83
2022/05/02 01:13:36;;;;;;;9.35;8.43;;;15.10;99.90;;;;;;5084580;28;20202;-84
2022/05/02 01:16:09;;;;;;;11.45;8.05;;;15.00;99.90;;;;;;5075678;28;20782;-79
2022/05/02 01:18:36;;;;;;;10.35;8.13;;;15.00;99.90;;;;;;5078812;28;20202;-79
2022/05/02 01:21:09;;;;;;;9.27;8.38;;;15.10;99.90;;;;;;5072622;28;20632;-77
2022/05/02 01:23:36;;;;;;;10.05;7.60;;;15.00;99.90;;;;;;5072774;28;20198;-82
2022/05/02 01:26:03;;;;;;;10.48;9.02;;;15.00;99.90;;;;;;5080596;28;20742;-83
2022/05/02 01:28:30;;;;;;;7.88;7.15;;;14.90;99.90;;;;;;5075137;28;20214;-83
2022/05/02 01:30:58;;;;;;;11.55;8.18;;;14.90;99.90;;;;;;5078085;28;20198;-86
2022/05/02 01:33:24;;;;;;;9.73;8.05;;;14.90;99.90;;;;;;5080769;28;20646;-85
2022/05/02 01:35:51;;;;;;;10.57;8.38;;;15.00;99.90;;;;;;5085560;28;20708;-78
2022/05/02 01:38:20;;;;;;;9.80;8.65;;;14.90;99.90;;;;;;5082286;28;20263;-80
2022/05/02 01:40:47;;;;;;;9.57;8.65;;;14.90;99.90;;;;;;5075389;28;20616;-77
2022/05/02 01:43:14;;;;;;;13.30;8.70;;;14.80;99.90;;;;;;5083136;28;20205;-76
2022/05/02 01:45:40;;;;;;;9.48;8.57;;;14.90;99.90;;;;;;5090250;28;20275;-78
2022/05/02 01:48:08;;;;;;;12.30;8.38;;;14.80;99.90;;;;;;5090589;28;20194;-78
2022/05/02 01:50:35;;;;;;;10.27;8.48;;;14.70;99.90;;;;;;5090103;28;20274;-81
2022/05/02 01:53:02;;;;;;;12.27;7.80;;;14.70;99.90;;;;;;5078666;28;20202;-78
2022/05/02 01:55:30;;;;;;;9.80;8.38;;;14.80;99.90;;;;;;5078710;28;20202;-79
2022/05/02 01:57:57;;;;;;;9.82;8.63;;;14.80;99.90;;;;;;5074159;28;20673;-76
2022/05/02 02:00:24;;;;;;;11.98;8.82;;;14.80;99.90;;;;;;5083612;28;20548;-82
2022/05/02 02:02:52;;;;;;;12.23;9.20;;;14.70;99.90;;;;;;5072352;28;20205;-84
2022/05/02 02:08:03;;;;;;;10.18;9.02;;;14.60;99.90;;;;;;5072229;28;20551;-88
2022/05/02 02:10:32;;;;;;;12.98;10.82;;;14.50;99.90;;;;;;5071821;28;20214;-82
2022/05/02 02:12:59;;;;;;;15.68;10.38;;;14.50;99.90;;;;;;5071915;28;20259;-88
2022/05/02 02:15:26;;;;;;;11.77;9.57;;;14.50;99.90;;;;;;5077621;28;20202;-87
2022/05/02 02:17:53;;;;;;;11.10;8.98;;;14.50;99.90;;;;;;5082548;28;20253;-83
2022/05/02 02:20:20;;;;;;;9.93;8.93;;;14.40;99.90;;;;;;5075334;28;20247;-83
2022/05/02 02:22:48;;;;;;;11.23;10.00;;;14.50;99.90;;;;;;5083785;28;20205;-87
2022/05/02 02:25:15;;;;;;;10.68;9.65;;;14.40;99.90;;;;;;5082309;28;20299;-82
2022/05/02 02:27:43;;;;;;;12.38;9.73;;;14.40;99.90;;;;;;5091884;28;20246;-77
2022/05/02 02:30:11;;;;;;;12.27;8.85;;;14.50;99.90;;;;;;5082901;28;20734;-84
2022/05/02 02:32:38;;;;;;;16.27;9.38;;;14.50;99.90;;;;;;5082453;28;20208;-81
2022/05/02 02:35:06;;;;;;;11.55;10.35;;;14.40;99.90;;;;;;5073812;28;20210;-75
2022/05/02 02:37:33;;;;;;;11.82;9.85;;;14.30;99.90;;;;;;5090967;28;20310;-87
2022/05/02 02:40:01;;;;;;;11.20;8.65;;;14.20;99.90;;;;;;5083365;28;20202;-83
2022/05/02 02:42:28;;;;;;;9.77;8.65;;;14.20;99.90;;;;;;5077364;28;20229;-86
2022/05/02 02:44:56;;;;;;;9.90;8.88;;;14.10;99.90;;;;;;5071568;28;20199;-82
2022/05/02 02:47:23;;;;;;;11.82;9.55;;;14.20;99.90;;;;;;5080196;28;20205;-83
2022/05/02 02:49:50;;;;;;;10.23;9.23;;;14.10;99.90;;;;;;5077922;28;20198;-85
2022/05/02 02:52:17;;;;;;;11.15;9.82;;;14.10;99.90;;;;;;5070879;28;20206;-79
2022/05/02 02:54:44;;;;;;;10.95;9.15;;;14.10;99.90;;;;;;5079127;28;20666;-81
2022/05/02 02:57:11;;;;;;;11.18;9.98;;;14.10;99.90;;;;;;5086126;28;20225;-81
2022/05/02 02:59:38;;;;;;;11.48;9.10;;;14.10;99.90;;;;;;5072149;28;20206;-87
2022/05/02 03:02:07;;;;;;;12.63;9.23;;;14.10;99.90;;;;;;5071014;28;20198;-86
2022/05/02 03:07:19;;;;;;;10.50;9.35;;;14.10;99.90;;;;;;5083302;28;20256;-81
2022/05/02 03:09:46;;;;;;;11.95;10.05;;;14.10;99.90;;;;;;5079351;28;20206;-84
2022/05/02 03:12:13;;;;;;;13.82;10.10;;;14.10;99.90;;;;;;5077146;28;20737;-78
2022/05/02 03:14:40;;;;;;;13.77;10.13;;;14.10;99.90;;;;;;5081121;28;20202;-79
2022/05/02 03:17:09;;;;;;;13.85;10.40;;;13.90;99.90;;;;;;5079016;28;20790;-80
2022/05/02 03:19:36;;;;;;;11.23;9.90;;;14.00;99.90;;;;;;5070783;28;21106;-78
2022/05/02 03:22:03;;;;;;;12.30;10.27;;;14.00;99.90;;;;;;5065465;28;20562;-76
2022/05/02 03:24:30;;;;;;;14.32;9.43;;;14.10;99.90;;;;;;5081730;28;20205;-78
2022/05/02 03:26:57;;;;;;;10.30;8.65;;;14.10;99.90;;;;;;5072358;28;20251;-84
2022/05/02 03:29:24;;;;;;;10.52;9.52;;;14.10;99.90;;;;;;5075392;28;20205;-83
2022/05/02 03:31:51;;;;;;;12.38;11.20;;;14.10;99.90;;;;;;5090699;28;20254;-82
2022/05/02 03:34:19;;;;;;;12.85;11.50;;;14.10;99.90;;;;;;5082395;28;20718;-82
2022/05/02 03:36:46;;;;;;;14.10;10.77;;;14.00;99.90;;;;;;5083211;28;20233;-79
2022/05/02 03:39:13;;;;;;;17.25;12.10;;;13.90;99.90;;;;;;5079070;28;20251;-75
2022/05/02 03:41:40;;;;;;;14.63;11.23;;;13.80;99.90;;;;;;5077012;28;20676;-82
2022/05/02 03:44:07;;;;;;;14.23;12.68;;;13.80;99.90;;;;;;5088749;28;20201;-82
2022/05/02 03:46:34;;;;;;;14.43;11.68;;;13.80;99.90;;;;;;5082705;28;20201;-78
2022/05/02 03:49:01;;;;;;;20.45;13.48;;;13.80;99.90;;;;;;5083231;28;20674;-90
2022/05/02 03:51:29;;;;;;;14.02;12.40;;;13.80;99.90;;;;;;5078976;28;20202;-83
2022/05/02 03:53:56;;;;;;;15.73;11.98;;;13.70;99.90;;;;;;5071170;28;20213;-85
2022/05/02 03:56:23;;;;;;;15.07;11.98;;;13.70;99.90;;;;;;5079085;28;20705;-86
2022/05/02 03:58:51;;;;;;;17.58;13.27;;;13.70;99.90;;;;;;5071331;28;20259;-82
2022/05/02 04:01:19;;;;;;;16.15;12.88;;;13.70;99.90;;;;;;5070586;28;20206;-80
2022/05/02 04:03:46;;;;;;;15.60;12.75;;;13.70;99.90;;;;;;5085194;28;20205;-80
2022/05/02 04:06:13;;;;;;;15.07;13.48;;;13.70;99.90;;;;;;5078145;28;20202;-71
2022/05/02 04:08:42;;;;;;;17.38;13.57;;;13.80;99.90;;;;;;5057973;28;20685;-88
2022/05/02 04:11:09;;;;;;;20.20;14.05;;;13.70;99.90;;;;;;5074792;28;20244;-83
2022/05/02 04:13:36;;;;;;;15.70;13.63;;;13.80;99.90;;;;;;5072750;28;20264;-86
2022/05/02 04:16:03;;;;;;;16.08;14.02;;;13.60;99.90;;;;;;5079504;28;20291;-84
2022/05/02 04:18:30;;;;;;;18.45;14.82;;;13.50;99.90;;;;;;5083545;28;20201;-83
2022/05/02 04:20:57;;;;;;;19.10;15.23;;;13.50;99.90;;;;;;5081396;28;20629;-85
2022/05/02 04:23:24;;;;;;;16.17;13.27;;;13.50;99.90;;;;;;5089986;28;20259;-85
2022/05/02 04:25:52;;;;;;;15.93;13.57;;;13.40;99.90;;;;;;5085908;28;20255;-83
2022/05/02 04:28:19;;;;;;;17.80;14.68;;;13.50;99.90;;;;;;5085504;28;20554;-79
2022/05/02 04:30:46;;;;;;;15.70;12.98;;;13.40;99.90;;;;;;5074953;28;20206;-79
2022/05/02 04:33:13;;;;;;;17.95;14.43;;;13.40;99.90;;;;;;5087462;28;20255;-80
2022/05/02 04:35:40;;;;;;;18.20;14.35;;;13.50;99.90;;;;;;5072803;28;20203;-82
2022/05/02 04:38:07;;;;;;;21.23;13.88;;;13.40;99.90;;;;;;5081261;28;20655;-77
2022/05/02 04:40:34;;;;;;;16.02;12.40;;;13.40;99.90;;;;;;5080566;28;20202;-76
2022/05/02 04:43:03;;;;;;;23.15;15.07;;;13.40;99.90;;;;;;5076052;28;20198;-78
2022/05/02 04:45:29;;;;;;;17.13;14.13;;;13.50;99.90;;;;;;5085649;28;20272;-80
2022/05/02 04:47:57;;;;;;;18.90;13.93;;;13.50;99.90;;;;;;5082607;28;20202;-79
2022/05/02 04:50:24;;;;;;;15.07;12.80;;;13.40;99.90;;;;;;5078342;28;20292;-79
2022/05/02 04:52:51;;;;;;;17.35;13.65;;;13.40;99.90;;;;;;5088679;28;20258;-83
2022/05/02 04:55:18;;;;;;;18.88;13.48;;;13.40;99.90;;;;;;5088664;28;20918;-85
2022/05/02 04:57:45;;;;;;;18.23;14.98;;;13.50;99.90;;;;;;5089818;28;20607;-79
2022/05/02 05:00:16;;;;;;;16.65;13.55;;;13.40;99.90;;;;;;5072923;28;20286;-77
2022/05/02 05:02:43;;;;;;;19.52;14.30;;;13.40;99.90;;;;;;5067603;28;20202;-76
2022/05/02 05:05:10;;;;;;;14.68;12.98;;;13.40;99.90;;;;;;5076762;28;20239;-74
2022/05/02 05:07:38;;;;;;;17.00;13.95;;;13.70;99.90;;;;;;5090322;28;20255;-76
2022/05/02 05:10:07;;;;;;;13.98;12.55;;;13.80;99.90;;;;;;5079954;28;20202;-74
2022/05/02 05:12:43;;;;;;;15.18;12.20;;;13.70;99.90;;;;;;5086796;28;20206;-72
2022/05/02 05:18:22;;;;;;;18.30;14.15;;;13.50;99.90;;;;;;5069229;28;20304;-72
2022/05/02 05:21:00;;;;;;;18.10;13.77;;;13.60;99.90;;;;;;5067290;28;20232;-71
2022/05/02 05:23:45;;;;;;;18.45;15.02;;;13.60;99.90;;;;;;5074815;28;20267;-72
2022/05/02 05:26:16;;;;;;;18.80;14.68;;;13.60;99.90;;;;;;5074544;28;20711;-70
2022/05/02 05:28:57;;;;;;;19.55;14.20;;;13.80;99.90;;;;;;5067737;28;20747;-72
2022/05/02 05:31:33;;;;;;;17.60;13.75;;;13.70;99.90;;;;;;5072251;28;20220;-72
2022/05/02 05:34:07;;;;;;;18.33;13.77;;;13.70;99.90;;;;;;5079728;28;20284;-71
2022/05/02 05:36:47;;;;;;;20.55;13.98;;;13.90;99.90;;;;;;5076562;28;20218;-71
2022/05/02 05:39:25;;;;;;;15.32;12.27;;;13.90;99.90;;;;;;5071328;28;20214;-71
2022/05/02 05:42:04;;;;;;;19.10;14.68;;;13.70;99.90;;;;;;5063459;28;20251;-73
2022/05/02 05:44:49;;;;;;;15.48;12.68;;;13.60;99.90;;;;;;5080671;28;20205;-73
2022/05/02 05:47:33;;;;;;;20.83;15.02;;;13.70;99.90;;;;;;5078760;28;20205;-77
2022/05/02 05:50:11;;;;;;;18.13;14.43;;;13.60;99.90;;;;;;5071476;28;20210;-85
2022/05/02 05:52:56;;;;;;;16.50;13.93;;;13.40;99.90;;;;;;5072650;28;20252;-82
2022/05/02 05:55:30;;;;;;;16.35;13.40;;;13.50;99.90;;;;;;5052133;28;20671;-82
2022/05/02 05:58:08;;;;;;;16.80;13.68;;;13.50;99.90;;;;;;5082111;28;20275;-85
2022/05/02 06:00:44;;;;;;;20.85;15.38;;;13.50;99.90;;;;;;5084605;28;20579;-85
2022/05/02 06:03:15;;;;;;;18.80;13.55;;;13.60;99.90;;;;;;5066579;28;20255;-86
2022/05/02 06:05:44;;;;;;;20.92;16.25;;;13.60;99.90;;;;;;5080887;28;20270;-84
2022/05/02 06:08:14;;;;;;;15.68;13.93;;;13.60;99.90;;;;;;5091956;28;20282;-82
2022/05/02 06:10:43;;;;;;;27.45;14.40;;;13.70;99.90;;;;;;5075985;28;20731;-86
2022/05/02 06:13:10;;;;;;;16.20;13.50;;;13.70;99.90;;;;;;5075225;28;20193;-88
2022/05/02 06:18:31;;;;;;;19.50;13.52;;;13.90;99.90;;;;;;5065800;28;20251;-80
2022/05/02 06:21:00;;;;;;;15.07;12.52;;;14.10;99.90;;;;;;5081630;28;20193;-71
2022/05/02 06:23:30;;;;;;;18.75;14.23;;;14.20;99.90;;;;;;5075713;28;20663;-73
2022/05/02 06:25:57;;;;;;;15.70;13.23;;;14.30;99.90;;;;;;5069049;28;20202;-75
2022/05/02 06:28:31;;;;;;;17.23;14.25;;;14.20;99.90;;;;;;5070636;28;20623;-81
2022/05/02 06:31:01;;;;;;;19.35;14.38;;;14.20;99.90;;;;;;5076979;28;20657;-79
2022/05/02 06:33:31;;;;;;;19.23;13.45;;;14.20;99.90;;;;;;5072390;28;20198;-73
2022/05/02 06:36:17;;;;;;;16.25;14.23;;;14.20;99.90;;;;;;5075498;28;20198;-72
2022/05/02 06:38:53;;;;;;;20.25;13.98;;;14.30;99.90;;;;;;5075709;28;20217;-81
2022/05/02 06:41:34;;;;;;;16.17;12.98;;;14.50;99.90;;;;;;5088835;28;20205;-84
2022/05/02 06:44:10;;;;;;;17.65;14.70;;;14.50;99.90;;;;;;5070610;28;20219;-87
2022/05/02 06:46:43;;;;;;;17.55;13.65;;;14.50;99.90;;;;;;5082842;28;20247;-85
2022/05/02 06:49:16;;;;;;;18.05;14.27;;;14.70;99.90;;;;;;5066894;28;20297;-86
2022/05/02 06:51:49;;;;;;;17.85;12.95;;;14.80;99.90;;;;;;5071100;28;20256;-85
2022/05/02 06:54:45;;;;;;;15.38;12.73;;;14.90;99.90;;;;;;5085865;28;20206;-85
2022/05/02 06:57:25;;;;;;;18.10;13.95;;;15.20;99.90;;;;;;5075504;28;20232;-90
2022/05/02 07:00:01;;;;;;;17.80;13.35;;;15.10;99.90;;;;;;5071518;28;20210;-90
2022/05/02 07:02:56;;;;;;;18.63;13.82;;;15.20;99.90;;;;;;5079967;28;20197;-86
2022/05/02 07:05:27;;;;;;;17.40;12.60;;;15.30;99.90;;;;;;5092028;28;20212;-87
2022/05/02 07:07:59;;;;;;;17.38;12.75;;;15.40;99.90;;;;;;5054756;28;20206;-87
2022/05/02 07:10:32;;;;;;;14.77;12.57;;;15.50;99.90;;;;;;5065290;28;20239;-84
2022/05/02 07:13:07;;;;;;;15.23;13.52;;;15.60;99.90;;;;;;5082708;28;20201;-83
2022/05/02 07:15:41;;;;;;;13.20;11.80;;;15.60;99.90;;;;;;5074626;28;20266;-85
2022/05/02 07:18:11;;;;;;;14.32;12.25;;;15.80;99.90;;;;;;5063830;28;20225;-83
2022/05/02 07:20:54;;;;;;;14.13;11.25;;;15.90;99.90;;;;;;5071491;28;20639;-86
2022/05/02 07:23:48;;;;;;;16.13;12.05;;;16.10;99.90;;;;;;5064750;28;20677;-83
2022/05/02 07:26:18;;;;;;;14.38;11.45;;;16.10;99.90;;;;;;5065666;28;20696;-75
2022/05/02 07:28:47;;;;;;;13.95;10.93;;;16.10;99.90;;;;;;5078405;28;20594;-81
2022/05/02 07:31:18;;;;;;;16.38;12.55;;;16.00;99.90;;;;;;5059353;28;20631;-79
2022/05/02 07:33:48;;;;;;;17.50;12.98;;;16.10;99.90;;;;;;5082080;28;20263;-75
2022/05/02 07:36:18;;;;;;;15.45;11.18;;;16.00;99.90;;;;;;5062446;28;20263;-85
2022/05/02 07:38:47;;;;;;;13.93;12.25;;;16.20;99.90;;;;;;5078036;28;20272;-79
2022/05/02 07:41:25;;;;;;;15.13;11.85;;;16.30;99.90;;;;;;5080512;28;20213;-75
2022/05/02 07:43:57;;;;;;;15.90;11.75;;;16.20;99.90;;;;;;5073994;28;20194;-78
2022/05/02 07:46:27;;;;;;;12.85;11.55;;;16.20;99.90;;;;;;5066081;28;20718;-79
2022/05/02 07:48:58;;;;;;;14.70;11.30;;;16.60;99.90;;;;;;5083877;28;20319;-78
2022/05/02 07:51:27;;;;;;;17.15;11.65;;;16.80;99.90;;;;;;5081248;28;20190;-78
2022/05/02 07:53:54;;;;;;;13.73;11.73;;;16.80;99.90;;;;;;5080351;28;20743;-78
2022/05/02 07:56:26;;;;;;;14.98;11.65;;;16.70;99.90;;;;;;5081028;28;20210;-78
2022/05/02 07:58:54;;;;;;;15.50;11.88;;;16.60;99.90;;;;;;5067894;28;20237;-80
2022/05/02 08:01:22;;;;;;;13.73;11.27;;;16.60;99.90;;;;;;5081213;28;20630;-76
2022/05/02 08:03:49;;;;;;;13.25;11.85;;;16.30;99.90;;;;;;5071913;28;20567;-82
2022/05/02 08:06:44;;;;;;;15.45;12.13;;;16.20;99.90;;;;;;5059111;28;20207;-80
2022/05/02 08:09:29;;;;;;;17.13;13.05;;;16.20;99.90;;;;;;5068064;28;20646;-79
2022/05/02 08:12:03;;;;;;;20.60;11.65;;;16.20;99.90;;;;;;5071659;28;20202;-78
2022/05/02 08:14:43;;;;;;;11.38;10.02;;;16.20;99.90;;;;;;5072052;28;20206;-77
2022/05/02 08:17:26;;;;;;;19.08;12.80;;;16.30;99.90;;;;;;5058435;28;20241;-84
2022/05/02 08:20:02;;;;;;;14.38;11.13;;;16.50;99.90;;;;;;5061083;28;20233;-78
2022/05/02 08:28:27;;;;;;;14.43;10.63;;;17.00;99.90;;;;;;5072277;28;20292;-79
2022/05/02 08:31:02;;;;;;;14.25;11.30;;;17.30;99.90;;;;;;5069308;28;20201;-83
2022/05/02 08:33:32;;;;;;;13.13;10.80;;;17.30;99.90;;;;;;5070453;28;20635;-82
2022/05/02 08:36:05;;;;;;;12.45;11.25;;;17.30;99.90;;;;;;5066298;28;20264;-77
2022/05/02 08:38:55;;;;;;;14.18;11.27;;;17.40;99.90;;;;;;5069254;28;20226;-80
2022/05/02 08:42:07;;;;;;;12.07;10.93;;;17.60;99.90;;;;;;5076179;28;20206;-79
2022/05/02 08:45:27;;;;;;;13.32;10.65;;;17.80;99.90;;;;;;5044419;28;20210;-77
2022/05/02 08:48:32;;;;;;;11.77;10.57;;;18.20;99.90;;;;;;5072307;28;20196;-78
2022/05/02 08:51:40;;;;;;;12.55;11.25;;;18.60;99.90;;;;;;5070492;28;20271;-79
2022/05/02 08:54:55;;;;;;;12.55;10.13;;;18.30;99.90;;;;;;5023003;28;20822;-77
2022/05/02 08:58:10;;;;;;;14.68;10.63;;;17.90;99.90;;;;;;5077427;28;20266;-76
2022/05/02 09:00:56;;;;;;;11.43;10.23;;;18.20;99.90;;;;;;5066784;28;20218;-87
2022/05/02 09:04:06;;;;;;;13.20;11.27;;;18.10;99.90;;;;;;5069213;28;20189;-81
2022/05/02 09:07:20;;;;;;;12.73;9.63;;;17.90;99.90;;;;;;5068771;28;20334;-78
2022/05/02 09:10:06;;;;;;;18.83;10.73;;;18.50;99.90;;;;;;5022639;28;20256;-77
2022/05/02 09:13:23;;;;;;;12.27;10.35;;;18.70;99.90;;;;;;5041277;28;20199;-77
2022/05/02 09:16:21;;;;;;;13.15;10.48;;;18.50;99.90;;;;;;5055982;28;20198;-79
2022/05/02 09:19:29;;;;;;;11.38;10.02;;;17.80;99.90;;;;;;5071039;28;20252;-81
2022/05/02 09:22:30;;;;;;;11.98;10.57;;;18.40;99.90;;;;;;5066264;28;20210;-79
2022/05/02 09:25:08;;;;;;;15.02;12.13;;;18.40;99.90;;;;;;5086990;28;20246;-76
2022/05/02 09:27:38;;;;;;;12.27;10.20;;;18.40;99.90;;;;;;5065863;28;20292;-80
2022/05/02 09:30:45;;;;;;;12.23;9.77;;;18.10;99.90;;;;;;5070723;28;20332;-78
2022/05/02 09:33:31;;;;;;;11.38;10.20;;;18.70;99.90;;;;;;5053936;28;20751;-80
2022/05/02 09:36:05;;;;;;;12.25;10.85;;;18.90;99.90;;;;;;5071098;28;20556;-78
2022/05/02 09:38:47;;;;;;;11.63;10.57;;;18.90;99.90;;;;;;5064720;28;20234;-82
2022/05/02 09:41:28;;;;;;;12.57;9.85;;;19.30;99.90;;;;;;5060821;28;20272;-79
2022/05/02 09:50:03;;;;;;;10.65;9.55;;;20.50;99.90;;;;;;5089829;28;20750;-81
2022/05/02 09:52:41;;;;;;;12.50;9.60;;;19.80;99.90;;;;;;5066780;28;20207;-82
2022/05/02 09:58:32;;;;;;;11.07;10.02;;;20.20;99.90;;;;;;5073868;28;20343;-89
2022/05/02 10:01:10;;;;;;;9.02;8.20;;;19.60;99.90;;;;;;5068515;28;20214;-87
2022/05/02 10:03:40;;;;;;;9.20;8.30;;;19.90;99.90;;;;;;5070820;28;20220;-87
2022/05/02 10:06:11;;;;;;;11.18;8.85;;;23.60;99.90;;;;;;5072034;28;20210;-81
2022/05/02 10:08:54;;;;;;;12.25;8.93;;;26.50;99.90;;;;;;5088782;28;20206;-80
2022/05/02 10:11:51;;;;;;;9.77;7.57;;;27.70;99.90;;;;;;5061552;28;20209;-77
2022/05/02 10:14:56;;;;;;;8.85;8.05;;;25.70;99.90;;;;;;5064207;28;20552;-80
2022/05/02 10:17:54;;;;;;;10.77;9.32;;;24.50;99.90;;;;;;5072456;28;20220;-82
2022/05/02 10:20:22;;;;;;;9.82;8.93;;;23.00;99.90;;;;;;5060864;28;20704;-78
2022/05/02 10:22:59;;;;;;;11.82;8.90;;;21.60;99.90;;;;;;5071624;28;20279;-79
2022/05/02 10:25:36;;;;;;;11.77;10.30;;;20.90;99.90;;;;;;5069944;28;20237;-78
2022/05/02 10:28:19;;;;;;;10.90;8.68;;;20.50;99.90;;;;;;5061921;28;20258;-78
2022/05/02 10:30:57;;;;;;;9.70;8.70;;;20.20;99.90;;;;;;5080764;28;20566;-79
2022/05/02 10:33:45;;;;;;;12.60;8.50;;;20.50;99.90;;;;;;5072380;28;20209;-82
2022/05/02 10:36:12;;;;;;;11.70;9.15;;;20.20;99.90;;;;;;5059875;28;20286;-78
2022/05/02 10:38:47;;;;;;;14.57;9.95;;;19.80;99.90;;;;;;5070376;28;20773;-77
2022/05/02 10:41:18;;;;;;;11.82;9.85;;;19.70;99.90;;;;;;5067578;28;20209;-79
2022/05/02 10:43:50;;;;;;;9.07;8.20;;;19.10;99.90;;;;;;5078493;28;20209;-85
2022/05/02 10:46:19;;;;;;;8.88;7.97;;;19.10;99.90;;;;;;5064863;28;20712;-84
2022/05/02 10:48:52;;;;;;;10.55;9.40;;;19.90;99.90;;;;;;5062638;28;20289;-82
2022/05/02 10:51:31;;;;;;;10.55;9.00;;;20.60;99.90;;;;;;5063828;28;20202;-80
2022/05/02 10:54:09;;;;;;;7.90;7.15;;;20.90;99.90;;;;;;5063042;28;20736;-83
2022/05/02 10:56:41;;;;;;;10.10;9.10;;;20.00;99.90;;;;;;5064545;28;20229;-84
2022/05/02 10:59:11;;;;;;;9.23;8.30;;;19.80;99.90;;;;;;5063407;28;20275;-81
2022/05/02 11:02:05;;;;;;;11.48;9.55;;;19.80;99.90;;;;;;5069649;28;20693;-79
2022/05/02 11:04:57;;;;;;;9.88;8.98;;;20.30;99.90;;;;;;5070732;28;20229;-83
2022/05/02 11:07:30;;;;;;;12.57;9.73;;;20.30;99.90;;;;;;5067298;28;20210;-81
2022/05/02 11:10:05;;;;;;;11.35;8.93;;;20.10;99.90;;;;;;5062078;28;20195;-84
2022/05/02 11:12:40;;;;;;;10.85;9.68;;;19.90;99.90;;;;;;5062326;28;20742;-84
2022/05/02 11:15:09;;;;;;;10.05;9.05;;;19.80;99.90;;;;;;5067663;28;20208;-85
2022/05/02 11:17:57;;;;;;;11.18;10.07;;;19.60;99.90;;;;;;5067486;28;20208;-81
2022/05/02 11:20:41;;;;;;;9.90;7.65;;;19.80;99.90;;;;;;5068031;28;20307;-83
2022/05/02 11:23:35;;;;;;;9.73;8.43;;;20.20;99.90;;;;;;5067642;28;20208;-83
2022/05/02 11:26:13;;;;;;;9.82;8.90;;;20.80;99.90;;;;;;5068561;28;20313;-86
2022/05/02 11:28:59;;;;;;;12.15;8.43;;;20.60;99.90;;;;;;5073101;28;20263;-80
2022/05/02 11:31:33;;;;;;;10.05;8.60;;;19.90;99.90;;;;;;5067460;28;20856;-80
2022/05/02 11:34:14;;;;;;;10.02;7.97;;;19.70;99.90;;;;;;5073937;28;20198;-77
2022/05/02 11:36:45;;;;;;;9.77;8.88;;;19.90;99.90;;;;;;5074912;28;20212;-79
2022/05/02 11:39:20;;;;;;;12.60;9.82;;;19.80;99.90;;;;;;5081025;28;20286;-77
2022/05/02 11:41:51;;;;;;;11.70;10.07;;;19.60;99.90;;;;;;5081600;28;20209;-79
2022/05/02 11:44:21;;;;;;;10.73;9.20;;;20.00;99.90;;;;;;5065438;28;20211;-78
2022/05/02 11:47:01;;;;;;;12.43;8.50;;;20.20;99.90;;;;;;5076760;28;20201;-78
2022/05/02 11:49:44;;;;;;;11.18;9.80;;;20.40;99.90;;;;;;5067118;28;20206;-80
2022/05/02 11:52:15;;;;;;;9.52;8.57;;;20.40;99.90;;;;;;5071789;28;20731;-81
2022/05/02 11:54:46;;;;;;;10.43;8.63;;;20.40;99.90;;;;;;5080741;28;20209;-78
2022/05/02 11:57:20;;;;;;;11.40;8.65;;;20.90;99.90;;;;;;5079762;28;20743;-80
2022/05/02 12:00:07;;;;;;;15.15;8.70;;;20.70;99.90;;;;;;5084307;28;20281;-80
2022/05/02 12:02:43;;;;;;;13.80;8.30;;;22.00;99.90;;;;;;5077628;28;20618;-80
2022/05/02 12:05:27;;;;;;;8.90;7.25;;;21.90;99.90;;;;;;5077728;28;20251;-80
2022/05/02 12:07:57;;;;;;;11.63;7.90;;;22.40;99.90;;;;;;5080352;28;20189;-80
2022/05/02 12:10:34;;;;;;;9.13;7.93;;;22.30;99.90;;;;;;5071533;28;20267;-80
2022/05/02 12:13:01;;;;;;;8.80;7.75;;;22.10;99.90;;;;;;5079377;28;20285;-82
2022/05/02 12:15:29;;;;;;;9.52;7.63;;;21.40;99.90;;;;;;5082530;28;20203;-78
2022/05/02 12:17:59;;;;;;;9.25;8.32;;;20.60;99.90;;;;;;5086878;28;20205;-79
2022/05/02 12:20:28;;;;;;;10.75;9.75;;;20.40;99.90;;;;;;5084906;28;20324;-84
2022/05/02 12:23:01;;;;;;;8.30;7.50;;;20.70;99.90;;;;;;5074567;28;20281;-90
2022/05/02 12:25:29;;;;;;;9.52;8.15;;;20.40;99.90;;;;;;5074317;28;20202;-88
2022/05/02 12:27:58;;;;;;;11.68;8.07;;;20.30;99.90;;;;;;5078677;28;20726;-88
2022/05/02 12:30:28;;;;;;;9.00;8.10;;;20.30;99.90;;;;;;5086065;28;20326;-87
2022/05/02 12:33:00;;;;;;;8.88;7.57;;;20.30;99.90;;;;;;5057610;28;20697;-90
2022/05/02 12:35:36;;;;;;;8.48;7.22;;;20.30;99.90;;;;;;5072907;28;20198;-85
2022/05/02 12:38:15;;;;;;;8.60;7.63;;;20.40;99.90;;;;;;5090666;28;20201;-84
2022/05/02 12:40:43;;;;;;;9.27;6.57;;;20.50;99.90;;;;;;5065811;28;20239;-81
2022/05/02 12:43:12;;;;;;;8.10;7.38;;;20.70;99.90;;;;;;5088905;28;20197;-88
2022/05/02 12:45:47;;;;;;;8.10;7.25;;;20.50;99.90;;;;;;5075145;28;20289;-81
2022/05/02 12:48:23;;;;;;;10.00;8.10;;;20.50;99.90;;;;;;5078420;28;20205;-87
2022/05/02 12:50:52;;;;;;;8.43;7.55;;;20.80;99.90;;;;;;5079059;28;20304;-89
2022/05/02 12:54:09;;;;;;;9.98;7.28;;;21.00;99.90;;;;;;5076737;28;20206;-84
2022/05/02 12:56:10;;;;;;;7.55;6.93;;;20.80;99.90;;;;;;5064674;28;20676;-86
2022/05/02 13:01:24;;;;;;;10.60;7.68;;;21.20;99.90;;;;;;5063356;28;20625;-78
2022/05/02 13:03:56;;;;;;;11.10;7.18;;;21.20;99.90;;;;;;5057848;28;20212;-79
2022/05/02 13:06:24;;;;;;;8.20;7.40;;;21.10;99.90;;;;;;5077674;28;20673;-81
2022/05/02 13:09:08;;;;;;;8.23;7.53;;;21.20;99.90;;;;;;5072779;28;20730;-80
2022/05/02 13:11:38;;;;;;;7.10;6.28;;;21.10;99.90;;;;;;5070614;28;20206;-81
2022/05/02 13:14:06;;;;;;;8.65;7.30;;;21.10;99.90;;;;;;5071735;28;20248;-86
2022/05/02 13:16:41;;;;;;;6.63;5.88;;;21.00;99.90;;;;;;5073004;28;20206;-80
2022/05/02 13:19:08;;;;;;;9.60;6.03;;;20.80;99.90;;;;;;5080518;28;20229;-89
2022/05/02 13:21:37;;;;;;;7.95;6.72;;;20.90;99.90;;;;;;5080897;28;20283;-84
2022/05/02 13:24:09;;;;;;;9.52;6.95;;;21.10;99.90;;;;;;5076885;28;20305;-83
2022/05/02 13:27:14;;;;;;;9.70;6.82;;;21.10;99.90;;;;;;5074799;28;20233;-78
2022/05/02 13:29:55;;;;;;;7.18;6.47;;;21.20;99.90;;;;;;5064622;28;20198;-83
2022/05/02 13:32:27;;;;;;;9.95;6.93;;;21.30;99.90;;;;;;5072193;28;20293;-81
2022/05/02 13:35:15;;;;;;;8.20;7.28;;;21.10;99.90;;;;;;5070890;28;20285;-78
2022/05/02 13:37:55;;;;;;;10.00;6.78;;;21.00;99.90;;;;;;5068371;28;20218;-81